Joplin, Missouri
Current Conditions -  °F | °C
As of 3:53 PM on Thursday 27 Nov 2014 (Local Time) from KJLN Reporting Station
Clear Clear  
Wind Chill: 43°   Ceiling: Unl
Heat Index: 43°   Visibility: 10mi
Dew Point: 18°   Wind: 3mph
Humidity: 37%   Direction: 150°SSE
Pressure: 30.42"   Gusts: NA
Location:  37.09°N, 94.51°W
Report Text: KJLN 272153Z 15003KT 10SM CLR 06/M08 A3042 RMK AO2 SLP307 T00611078
Loading
Personal Weather Stations






























Interactive Weather Map New forecast layout! Learn more

10-Day Weather Forecast

Advertisements
Track Severe Weather on mobile